sensor_id;sensor_type;location;lat;lon;timestamp;P1;durP1;ratioP1;P2;durP2;ratioP2
46230;SDS011;31949;51.404;-0.038;2023-05-02T00:01:59;2.55;;;1.75;;
46230;SDS011;31949;51.404;-0.038;2023-05-02T00:04:27;1.90;;;1.52;;
46230;SDS011;31949;51.404;-0.038;2023-05-02T00:06:54;1.83;;;1.35;;
46230;SDS011;31949;51.404;-0.038;2023-05-02T00:09:22;1.63;;;1.50;;
46230;SDS011;31949;51.404;-0.038;2023-05-02T00:11:49;2.22;;;1.80;;
46230;SDS011;31949;51.404;-0.038;2023-05-02T00:14:16;1.83;;;1.73;;
46230;SDS011;31949;51.404;-0.038;2023-05-02T00:16:43;3.63;;;1.60;;
46230;SDS011;31949;51.404;-0.038;2023-05-02T00:19:10;2.05;;;1.70;;
46230;SDS011;31949;51.404;-0.038;2023-05-02T00:21:38;2.55;;;1.58;;
46230;SDS011;31949;51.404;-0.038;2023-05-02T00:24:05;3.53;;;2.05;;
46230;SDS011;31949;51.404;-0.038;2023-05-02T00:26:32;2.70;;;1.88;;
46230;SDS011;31949;51.404;-0.038;2023-05-02T00:28:59;2.92;;;2.00;;
46230;SDS011;31949;51.404;-0.038;2023-05-02T00:31:26;3.83;;;2.15;;
46230;SDS011;31949;51.404;-0.038;2023-05-02T00:33:54;2.20;;;1.90;;
46230;SDS011;31949;51.404;-0.038;2023-05-02T00:36:22;3.25;;;2.08;;
46230;SDS011;31949;51.404;-0.038;2023-05-02T00:38:49;3.08;;;1.90;;
46230;SDS011;31949;51.404;-0.038;2023-05-02T00:41:16;3.35;;;1.50;;
46230;SDS011;31949;51.404;-0.038;2023-05-02T00:43:44;3.20;;;1.90;;
46230;SDS011;31949;51.404;-0.038;2023-05-02T00:46:11;1.83;;;1.58;;
46230;SDS011;31949;51.404;-0.038;2023-05-02T00:48:38;2.47;;;1.60;;
46230;SDS011;31949;51.404;-0.038;2023-05-02T00:51:06;2.58;;;1.40;;
46230;SDS011;31949;51.404;-0.038;2023-05-02T00:53:37;2.40;;;2.13;;
46230;SDS011;31949;51.404;-0.038;2023-05-02T00:56:06;2.65;;;1.92;;
46230;SDS011;31949;51.404;-0.038;2023-05-02T00:58:35;2.03;;;1.60;;
46230;SDS011;31949;51.404;-0.038;2023-05-02T01:04:13;3.33;;;1.80;;
46230;SDS011;31949;51.404;-0.038;2023-05-02T01:06:56;6.28;;;2.60;;
46230;SDS011;31949;51.404;-0.038;2023-05-02T01:09:28;4.05;;;2.90;;
46230;SDS011;31949;51.404;-0.038;2023-05-02T01:15:10;5.43;;;3.15;;
46230;SDS011;31949;51.404;-0.038;2023-05-02T01:17:44;3.65;;;3.15;;
46230;SDS011;31949;51.404;-0.038;2023-05-02T01:20:16;4.10;;;3.70;;
46230;SDS011;31949;51.404;-0.038;2023-05-02T01:22:46;4.95;;;3.53;;
46230;SDS011;31949;51.404;-0.038;2023-05-02T01:25:19;5.70;;;3.95;;
46230;SDS011;31949;51.404;-0.038;2023-05-02T01:30:51;6.13;;;4.28;;
46230;SDS011;31949;51.404;-0.038;2023-05-02T01:33:21;6.20;;;4.75;;
46230;SDS011;31949;51.404;-0.038;2023-05-02T01:35:51;7.88;;;5.68;;
46230;SDS011;31949;51.404;-0.038;2023-05-02T01:38:19;6.50;;;4.45;;
46230;SDS011;31949;51.404;-0.038;2023-05-02T01:40:48;5.15;;;4.22;;
46230;SDS011;31949;51.404;-0.038;2023-05-02T01:43:17;6.93;;;4.57;;
46230;SDS011;31949;51.404;-0.038;2023-05-02T01:45:47;6.78;;;4.05;;
46230;SDS011;31949;51.404;-0.038;2023-05-02T01:48:17;4.03;;;3.63;;
46230;SDS011;31949;51.404;-0.038;2023-05-02T01:50:45;10.93;;;5.05;;
46230;SDS011;31949;51.404;-0.038;2023-05-02T01:53:14;4.28;;;3.63;;
46230;SDS011;31949;51.404;-0.038;2023-05-02T01:55:43;4.22;;;3.80;;
46230;SDS011;31949;51.404;-0.038;2023-05-02T01:58:12;6.30;;;4.15;;
46230;SDS011;31949;51.404;-0.038;2023-05-02T02:00:41;5.82;;;3.95;;
46230;SDS011;31949;51.404;-0.038;2023-05-02T02:03:11;7.03;;;4.93;;
46230;SDS011;31949;51.404;-0.038;2023-05-02T02:05:39;8.52;;;5.13;;
46230;SDS011;31949;51.404;-0.038;2023-05-02T02:08:07;7.80;;;5.50;;
46230;SDS011;31949;51.404;-0.038;2023-05-02T02:10:35;8.93;;;6.03;;
46230;SDS011;31949;51.404;-0.038;2023-05-02T02:13:12;8.93;;;5.25;;
46230;SDS011;31949;51.404;-0.038;2023-05-02T02:15:46;8.02;;;5.88;;
46230;SDS011;31949;51.404;-0.038;2023-05-02T02:18:21;8.23;;;5.53;;
46230;SDS011;31949;51.404;-0.038;2023-05-02T02:20:52;8.43;;;5.68;;
46230;SDS011;31949;51.404;-0.038;2023-05-02T02:23:21;8.45;;;6.00;;
46230;SDS011;31949;51.404;-0.038;2023-05-02T02:25:51;7.43;;;6.55;;
46230;SDS011;31949;51.404;-0.038;2023-05-02T02:28:20;9.50;;;6.60;;
46230;SDS011;31949;51.404;-0.038;2023-05-02T02:30:48;5.80;;;4.80;;
46230;SDS011;31949;51.404;-0.038;2023-05-02T02:33:15;8.63;;;5.40;;
46230;SDS011;31949;51.404;-0.038;2023-05-02T02:35:47;8.52;;;5.95;;
46230;SDS011;31949;51.404;-0.038;2023-05-02T02:38:21;9.75;;;6.47;;
46230;SDS011;31949;51.404;-0.038;2023-05-02T02:41:02;9.13;;;6.57;;
46230;SDS011;31949;51.404;-0.038;2023-05-02T02:49:17;6.25;;;5.10;;
46230;SDS011;31949;51.404;-0.038;2023-05-02T02:54:51;6.45;;;4.25;;
46230;SDS011;31949;51.404;-0.038;2023-05-02T03:02:34;6.25;;;4.68;;
46230;SDS011;31949;51.404;-0.038;2023-05-02T03:05:03;8.65;;;5.50;;
46230;SDS011;31949;51.404;-0.038;2023-05-02T03:07:32;8.07;;;6.75;;
46230;SDS011;31949;51.404;-0.038;2023-05-02T03:10:01;10.68;;;6.15;;
46230;SDS011;31949;51.404;-0.038;2023-05-02T03:12:34;10.65;;;6.47;;
46230;SDS011;31949;51.404;-0.038;2023-05-02T03:15:11;8.13;;;5.68;;
46230;SDS011;31949;51.404;-0.038;2023-05-02T03:17:59;9.57;;;6.05;;
46230;SDS011;31949;51.404;-0.038;2023-05-02T03:20:26;9.57;;;6.10;;
46230;SDS011;31949;51.404;-0.038;2023-05-02T03:22:53;6.45;;;5.20;;
46230;SDS011;31949;51.404;-0.038;2023-05-02T03:25:20;8.77;;;5.88;;
46230;SDS011;31949;51.404;-0.038;2023-05-02T03:27:48;7.60;;;6.07;;
46230;SDS011;31949;51.404;-0.038;2023-05-02T03:30:16;11.13;;;6.00;;
46230;SDS011;31949;51.404;-0.038;2023-05-02T03:32:43;8.98;;;6.05;;
46230;SDS011;31949;51.404;-0.038;2023-05-02T03:35:11;8.00;;;6.13;;
46230;SDS011;31949;51.404;-0.038;2023-05-02T03:37:42;7.18;;;5.97;;
46230;SDS011;31949;51.404;-0.038;2023-05-02T03:40:09;7.93;;;6.10;;
46230;SDS011;31949;51.404;-0.038;2023-05-02T03:42:37;8.40;;;6.25;;
46230;SDS011;31949;51.404;-0.038;2023-05-02T03:45:18;8.07;;;5.75;;
46230;SDS011;31949;51.404;-0.038;2023-05-02T03:47:47;10.75;;;5.63;;
46230;SDS011;31949;51.404;-0.038;2023-05-02T03:50:14;9.07;;;4.88;;
46230;SDS011;31949;51.404;-0.038;2023-05-02T03:52:43;9.20;;;6.78;;
46230;SDS011;31949;51.404;-0.038;2023-05-02T03:55:11;10.57;;;6.80;;
46230;SDS011;31949;51.404;-0.038;2023-05-02T03:57:39;8.82;;;6.70;;
46230;SDS011;31949;51.404;-0.038;2023-05-02T04:00:08;11.60;;;7.47;;
46230;SDS011;31949;51.404;-0.038;2023-05-02T04:02:42;12.95;;;9.43;;
46230;SDS011;31949;51.404;-0.038;2023-05-02T04:05:13;14.18;;;11.35;;
46230;SDS011;31949;51.404;-0.038;2023-05-02T04:07:40;15.95;;;11.25;;
46230;SDS011;31949;51.404;-0.038;2023-05-02T04:10:08;19.27;;;12.32;;
46230;SDS011;31949;51.404;-0.038;2023-05-02T04:12:45;18.27;;;13.70;;
46230;SDS011;31949;51.404;-0.038;2023-05-02T04:15:13;20.70;;;12.82;;
46230;SDS011;31949;51.404;-0.038;2023-05-02T04:17:42;15.55;;;11.60;;
46230;SDS011;31949;51.404;-0.038;2023-05-02T04:20:11;18.58;;;13.70;;
46230;SDS011;31949;51.404;-0.038;2023-05-02T04:22:43;23.35;;;13.85;;
46230;SDS011;31949;51.404;-0.038;2023-05-02T04:25:11;20.55;;;14.35;;
46230;SDS011;31949;51.404;-0.038;2023-05-02T04:27:40;18.40;;;12.82;;
46230;SDS011;31949;51.404;-0.038;2023-05-02T04:30:10;18.85;;;14.07;;
46230;SDS011;31949;51.404;-0.038;2023-05-02T04:32:40;16.52;;;9.55;;
46230;SDS011;31949;51.404;-0.038;2023-05-02T04:35:09;11.82;;;8.80;;
46230;SDS011;31949;51.404;-0.038;2023-05-02T04:37:37;8.05;;;5.60;;
46230;SDS011;31949;51.404;-0.038;2023-05-02T04:40:04;7.20;;;4.90;;
46230;SDS011;31949;51.404;-0.038;2023-05-02T04:42:32;7.97;;;4.68;;
46230;SDS011;31949;51.404;-0.038;2023-05-02T04:45:09;4.82;;;3.75;;
46230;SDS011;31949;51.404;-0.038;2023-05-02T04:47:36;6.47;;;3.97;;
46230;SDS011;31949;51.404;-0.038;2023-05-02T04:50:05;8.68;;;5.57;;
46230;SDS011;31949;51.404;-0.038;2023-05-02T04:52:32;7.22;;;4.53;;
46230;SDS011;31949;51.404;-0.038;2023-05-02T04:55:00;6.35;;;4.65;;
46230;SDS011;31949;51.404;-0.038;2023-05-02T04:57:27;7.25;;;4.75;;
46230;SDS011;31949;51.404;-0.038;2023-05-02T04:59:57;5.65;;;4.63;;
46230;SDS011;31949;51.404;-0.038;2023-05-02T05:02:26;9.45;;;4.47;;
46230;SDS011;31949;51.404;-0.038;2023-05-02T05:04:55;6.45;;;4.30;;
46230;SDS011;31949;51.404;-0.038;2023-05-02T05:07:22;9.52;;;5.07;;
46230;SDS011;31949;51.404;-0.038;2023-05-02T05:09:52;5.35;;;4.70;;
46230;SDS011;31949;51.404;-0.038;2023-05-02T05:12:22;9.13;;;4.93;;
46230;SDS011;31949;51.404;-0.038;2023-05-02T05:14:49;7.80;;;5.53;;
46230;SDS011;31949;51.404;-0.038;2023-05-02T05:17:18;5.82;;;4.38;;
46230;SDS011;31949;51.404;-0.038;2023-05-02T05:19:46;5.45;;;4.30;;
46230;SDS011;31949;51.404;-0.038;2023-05-02T05:22:14;6.68;;;4.50;;
46230;SDS011;31949;51.404;-0.038;2023-05-02T05:24:41;4.95;;;4.18;;
46230;SDS011;31949;51.404;-0.038;2023-05-02T05:27:09;9.25;;;5.20;;
46230;SDS011;31949;51.404;-0.038;2023-05-02T05:29:37;7.97;;;4.78;;
46230;SDS011;31949;51.404;-0.038;2023-05-02T05:32:04;6.70;;;4.70;;
46230;SDS011;31949;51.404;-0.038;2023-05-02T05:34:32;8.15;;;4.75;;
46230;SDS011;31949;51.404;-0.038;2023-05-02T05:37:00;7.05;;;3.75;;
46230;SDS011;31949;51.404;-0.038;2023-05-02T05:39:27;5.60;;;4.38;;
46230;SDS011;31949;51.404;-0.038;2023-05-02T05:41:56;5.30;;;3.97;;
46230;SDS011;31949;51.404;-0.038;2023-05-02T05:44:24;8.55;;;4.15;;
46230;SDS011;31949;51.404;-0.038;2023-05-02T05:46:52;5.05;;;3.20;;
46230;SDS011;31949;51.404;-0.038;2023-05-02T05:49:21;6.85;;;4.68;;
46230;SDS011;31949;51.404;-0.038;2023-05-02T05:51:49;4.88;;;3.45;;
46230;SDS011;31949;51.404;-0.038;2023-05-02T05:54:18;4.55;;;3.58;;
46230;SDS011;31949;51.404;-0.038;2023-05-02T05:56:45;7.68;;;4.45;;
46230;SDS011;31949;51.404;-0.038;2023-05-02T05:59:16;4.68;;;3.50;;
46230;SDS011;31949;51.404;-0.038;2023-05-02T06:01:43;4.40;;;3.30;;
46230;SDS011;31949;51.404;-0.038;2023-05-02T06:04:11;6.53;;;4.15;;
46230;SDS011;31949;51.404;-0.038;2023-05-02T06:06:42;6.85;;;4.22;;
46230;SDS011;31949;51.404;-0.038;2023-05-02T06:09:10;7.43;;;4.38;;
46230;SDS011;31949;51.404;-0.038;2023-05-02T06:11:37;4.05;;;3.65;;
46230;SDS011;31949;51.404;-0.038;2023-05-02T06:14:05;5.28;;;4.10;;
46230;SDS011;31949;51.404;-0.038;2023-05-02T06:16:32;9.88;;;4.82;;
46230;SDS011;31949;51.404;-0.038;2023-05-02T06:19:00;7.28;;;4.70;;
46230;SDS011;31949;51.404;-0.038;2023-05-02T06:21:27;8.77;;;4.68;;
46230;SDS011;31949;51.404;-0.038;2023-05-02T06:23:54;6.00;;;3.70;;
46230;SDS011;31949;51.404;-0.038;2023-05-02T06:26:21;4.25;;;3.60;;
46230;SDS011;31949;51.404;-0.038;2023-05-02T06:28:48;8.90;;;4.18;;
46230;SDS011;31949;51.404;-0.038;2023-05-02T06:31:16;7.55;;;4.75;;
46230;SDS011;31949;51.404;-0.038;2023-05-02T06:33:43;6.85;;;5.30;;
46230;SDS011;31949;51.404;-0.038;2023-05-02T06:36:10;8.85;;;4.75;;
46230;SDS011;31949;51.404;-0.038;2023-05-02T06:38:37;5.07;;;3.80;;
46230;SDS011;31949;51.404;-0.038;2023-05-02T06:41:05;10.20;;;4.00;;
46230;SDS011;31949;51.404;-0.038;2023-05-02T06:43:32;7.65;;;4.32;;
46230;SDS011;31949;51.404;-0.038;2023-05-02T06:45:59;7.13;;;4.65;;
46230;SDS011;31949;51.404;-0.038;2023-05-02T06:48:26;6.25;;;3.88;;
46230;SDS011;31949;51.404;-0.038;2023-05-02T06:50:54;7.35;;;5.10;;
46230;SDS011;31949;51.404;-0.038;2023-05-02T06:53:21;6.00;;;4.35;;
46230;SDS011;31949;51.404;-0.038;2023-05-02T06:55:48;6.25;;;4.32;;
46230;SDS011;31949;51.404;-0.038;2023-05-02T06:58:16;7.13;;;4.43;;
46230;SDS011;31949;51.404;-0.038;2023-05-02T07:00:43;4.95;;;3.83;;
46230;SDS011;31949;51.404;-0.038;2023-05-02T07:03:11;6.78;;;5.00;;
46230;SDS011;31949;51.404;-0.038;2023-05-02T07:05:38;7.32;;;5.28;;
46230;SDS011;31949;51.404;-0.038;2023-05-02T07:08:05;5.18;;;3.92;;
46230;SDS011;31949;51.404;-0.038;2023-05-02T07:10:33;7.90;;;4.60;;
46230;SDS011;31949;51.404;-0.038;2023-05-02T07:13:00;6.35;;;4.50;;
46230;SDS011;31949;51.404;-0.038;2023-05-02T07:15:27;9.52;;;4.70;;
46230;SDS011;31949;51.404;-0.038;2023-05-02T07:17:54;10.48;;;5.70;;
46230;SDS011;31949;51.404;-0.038;2023-05-02T07:20:21;7.13;;;5.15;;
46230;SDS011;31949;51.404;-0.038;2023-05-02T07:22:49;7.53;;;4.80;;
46230;SDS011;31949;51.404;-0.038;2023-05-02T07:25:16;9.55;;;5.03;;
46230;SDS011;31949;51.404;-0.038;2023-05-02T07:27:43;8.93;;;5.72;;
46230;SDS011;31949;51.404;-0.038;2023-05-02T07:30:11;11.48;;;5.55;;
46230;SDS011;31949;51.404;-0.038;2023-05-02T07:32:38;11.57;;;5.93;;
46230;SDS011;31949;51.404;-0.038;2023-05-02T07:35:06;9.20;;;5.45;;
46230;SDS011;31949;51.404;-0.038;2023-05-02T07:37:34;12.35;;;7.00;;
46230;SDS011;31949;51.404;-0.038;2023-05-02T07:40:02;9.57;;;6.85;;
46230;SDS011;31949;51.404;-0.038;2023-05-02T07:42:30;6.70;;;5.53;;
46230;SDS011;31949;51.404;-0.038;2023-05-02T07:44:58;13.15;;;6.80;;
46230;SDS011;31949;51.404;-0.038;2023-05-02T07:47:25;13.15;;;6.95;;
46230;SDS011;31949;51.404;-0.038;2023-05-02T07:49:53;14.02;;;7.70;;
46230;SDS011;31949;51.404;-0.038;2023-05-02T07:52:21;17.45;;;7.95;;
46230;SDS011;31949;51.404;-0.038;2023-05-02T07:54:49;6.00;;;4.95;;
46230;SDS011;31949;51.404;-0.038;2023-05-02T07:57:17;8.35;;;5.30;;
46230;SDS011;31949;51.404;-0.038;2023-05-02T07:59:44;10.25;;;5.63;;
46230;SDS011;31949;51.404;-0.038;2023-05-02T08:02:11;12.77;;;5.70;;
46230;SDS011;31949;51.404;-0.038;2023-05-02T08:04:39;6.78;;;4.57;;
46230;SDS011;31949;51.404;-0.038;2023-05-02T08:07:07;11.90;;;5.50;;
46230;SDS011;31949;51.404;-0.038;2023-05-02T08:09:34;8.85;;;4.70;;
46230;SDS011;31949;51.404;-0.038;2023-05-02T08:12:01;11.50;;;5.32;;
46230;SDS011;31949;51.404;-0.038;2023-05-02T08:14:29;9.63;;;6.03;;
46230;SDS011;31949;51.404;-0.038;2023-05-02T08:16:57;11.63;;;5.35;;
46230;SDS011;31949;51.404;-0.038;2023-05-02T08:19:25;10.98;;;5.75;;
46230;SDS011;31949;51.404;-0.038;2023-05-02T08:21:53;15.15;;;6.82;;
46230;SDS011;31949;51.404;-0.038;2023-05-02T08:24:21;12.52;;;6.57;;
46230;SDS011;31949;51.404;-0.038;2023-05-02T08:26:48;12.10;;;5.47;;
46230;SDS011;31949;51.404;-0.038;2023-05-02T08:29:16;7.70;;;5.30;;
46230;SDS011;31949;51.404;-0.038;2023-05-02T08:31:43;12.55;;;5.95;;
46230;SDS011;31949;51.404;-0.038;2023-05-02T08:34:11;17.30;;;5.85;;
46230;SDS011;31949;51.404;-0.038;2023-05-02T08:36:38;9.10;;;5.22;;
46230;SDS011;31949;51.404;-0.038;2023-05-02T08:39:05;11.60;;;4.20;;
46230;SDS011;31949;51.404;-0.038;2023-05-02T08:41:36;12.40;;;3.92;;
46230;SDS011;31949;51.404;-0.038;2023-05-02T08:44:04;9.63;;;3.20;;
46230;SDS011;31949;51.404;-0.038;2023-05-02T08:46:34;7.60;;;2.72;;
46230;SDS011;31949;51.404;-0.038;2023-05-02T08:49:02;7.20;;;2.80;;
46230;SDS011;31949;51.404;-0.038;2023-05-02T08:51:31;9.60;;;2.28;;
46230;SDS011;31949;51.404;-0.038;2023-05-02T08:54:01;5.65;;;2.20;;
46230;SDS011;31949;51.404;-0.038;2023-05-02T08:56:29;6.88;;;2.17;;
46230;SDS011;31949;51.404;-0.038;2023-05-02T08:58:58;6.97;;;1.85;;
46230;SDS011;31949;51.404;-0.038;2023-05-02T09:01:27;7.40;;;2.10;;
46230;SDS011;31949;51.404;-0.038;2023-05-02T09:03:56;6.20;;;2.58;;
46230;SDS011;31949;51.404;-0.038;2023-05-02T09:06:25;8.05;;;2.38;;
46230;SDS011;31949;51.404;-0.038;2023-05-02T09:08:53;6.63;;;3.22;;
46230;SDS011;31949;51.404;-0.038;2023-05-02T09:11:20;8.65;;;2.63;;
46230;SDS011;31949;51.404;-0.038;2023-05-02T09:13:48;8.60;;;2.35;;
46230;SDS011;31949;51.404;-0.038;2023-05-02T09:16:19;11.80;;;3.27;;
46230;SDS011;31949;51.404;-0.038;2023-05-02T09:18:53;4.82;;;2.28;;
46230;SDS011;31949;51.404;-0.038;2023-05-02T09:21:22;8.93;;;3.63;;
46230;SDS011;31949;51.404;-0.038;2023-05-02T09:23:52;9.60;;;2.40;;
46230;SDS011;31949;51.404;-0.038;2023-05-02T09:28:49;7.55;;;2.55;;
46230;SDS011;31949;51.404;-0.038;2023-05-02T09:31:19;11.65;;;3.00;;
46230;SDS011;31949;51.404;-0.038;2023-05-02T09:34:08;7.88;;;2.50;;
46230;SDS011;31949;51.404;-0.038;2023-05-02T09:36:41;9.85;;;3.50;;
46230;SDS011;31949;51.404;-0.038;2023-05-02T09:39:13;8.15;;;2.83;;
46230;SDS011;31949;51.404;-0.038;2023-05-02T09:41:43;7.95;;;2.50;;
46230;SDS011;31949;51.404;-0.038;2023-05-02T09:44:14;7.30;;;2.35;;
46230;SDS011;31949;51.404;-0.038;2023-05-02T09:46:52;10.27;;;2.60;;
46230;SDS011;31949;51.404;-0.038;2023-05-02T09:52:11;6.43;;;1.95;;
46230;SDS011;31949;51.404;-0.038;2023-05-02T09:54:42;13.38;;;3.00;;
46230;SDS011;31949;51.404;-0.038;2023-05-02T09:57:12;7.47;;;2.38;;
46230;SDS011;31949;51.404;-0.038;2023-05-02T09:59:40;5.78;;;2.05;;
46230;SDS011;31949;51.404;-0.038;2023-05-02T10:02:08;4.07;;;1.70;;
46230;SDS011;31949;51.404;-0.038;2023-05-02T10:04:37;4.93;;;2.05;;
46230;SDS011;31949;51.404;-0.038;2023-05-02T10:07:06;6.90;;;2.08;;
46230;SDS011;31949;51.404;-0.038;2023-05-02T10:09:36;7.32;;;1.90;;
46230;SDS011;31949;51.404;-0.038;2023-05-02T10:14:38;6.70;;;1.77;;
46230;SDS011;31949;51.404;-0.038;2023-05-02T10:17:15;8.55;;;2.50;;
46230;SDS011;31949;51.404;-0.038;2023-05-02T10:22:29;10.45;;;2.85;;
46230;SDS011;31949;51.404;-0.038;2023-05-02T10:24:58;7.25;;;2.33;;
46230;SDS011;31949;51.404;-0.038;2023-05-02T10:27:29;7.45;;;2.55;;
46230;SDS011;31949;51.404;-0.038;2023-05-02T10:30:00;7.45;;;2.30;;
46230;SDS011;31949;51.404;-0.038;2023-05-02T10:32:29;5.57;;;2.67;;
46230;SDS011;31949;51.404;-0.038;2023-05-02T10:35:03;10.95;;;2.30;;
46230;SDS011;31949;51.404;-0.038;2023-05-02T10:37:33;15.75;;;2.53;;
46230;SDS011;31949;51.404;-0.038;2023-05-02T10:40:04;8.67;;;2.23;;
46230;SDS011;31949;51.404;-0.038;2023-05-02T10:42:42;5.13;;;1.77;;
46230;SDS011;31949;51.404;-0.038;2023-05-02T10:45:12;11.07;;;2.47;;
46230;SDS011;31949;51.404;-0.038;2023-05-02T10:50:52;5.70;;;2.08;;
46230;SDS011;31949;51.404;-0.038;2023-05-02T10:53:38;5.50;;;2.13;;
46230;SDS011;31949;51.404;-0.038;2023-05-02T10:58:54;7.72;;;2.20;;
46230;SDS011;31949;51.404;-0.038;2023-05-02T11:01:54;5.72;;;1.70;;
46230;SDS011;31949;51.404;-0.038;2023-05-02T11:04:21;9.50;;;2.30;;
46230;SDS011;31949;51.404;-0.038;2023-05-02T11:11:55;5.57;;;1.95;;
46230;SDS011;31949;51.404;-0.038;2023-05-02T11:19:24;10.75;;;2.42;;
46230;SDS011;31949;51.404;-0.038;2023-05-02T11:21:52;7.30;;;1.67;;
46230;SDS011;31949;51.404;-0.038;2023-05-02T11:24:40;7.88;;;1.95;;
46230;SDS011;31949;51.404;-0.038;2023-05-02T11:29:57;6.03;;;2.63;;
46230;SDS011;31949;51.404;-0.038;2023-05-02T11:37:41;5.38;;;1.90;;
46230;SDS011;31949;51.404;-0.038;2023-05-02T11:40:09;8.10;;;2.38;;
46230;SDS011;31949;51.404;-0.038;2023-05-02T11:42:37;6.55;;;1.90;;
46230;SDS011;31949;51.404;-0.038;2023-05-02T11:45:05;7.20;;;1.98;;
46230;SDS011;31949;51.404;-0.038;2023-05-02T11:47:32;5.55;;;2.25;;
46230;SDS011;31949;51.404;-0.038;2023-05-02T11:50:02;4.05;;;1.70;;
46230;SDS011;31949;51.404;-0.038;2023-05-02T11:52:35;8.32;;;2.63;;
46230;SDS011;31949;51.404;-0.038;2023-05-02T11:55:07;5.65;;;1.80;;
46230;SDS011;31949;51.404;-0.038;2023-05-02T11:57:38;4.72;;;1.98;;
46230;SDS011;31949;51.404;-0.038;2023-05-02T12:00:06;8.38;;;2.53;;
46230;SDS011;31949;51.404;-0.038;2023-05-02T12:02:41;5.38;;;2.35;;
46230;SDS011;31949;51.404;-0.038;2023-05-02T12:05:13;6.65;;;1.98;;
46230;SDS011;31949;51.404;-0.038;2023-05-02T12:07:41;6.47;;;2.13;;
46230;SDS011;31949;51.404;-0.038;2023-05-02T12:10:14;4.30;;;1.80;;
46230;SDS011;31949;51.404;-0.038;2023-05-02T12:12:42;5.95;;;2.25;;
46230;SDS011;31949;51.404;-0.038;2023-05-02T12:15:10;10.23;;;3.00;;
46230;SDS011;31949;51.404;-0.038;2023-05-02T12:17:39;8.65;;;2.50;;
46230;SDS011;31949;51.404;-0.038;2023-05-02T12:20:08;10.25;;;2.72;;
46230;SDS011;31949;51.404;-0.038;2023-05-02T12:22:36;4.03;;;1.75;;
46230;SDS011;31949;51.404;-0.038;2023-05-02T12:25:04;3.72;;;1.45;;
46230;SDS011;31949;51.404;-0.038;2023-05-02T12:27:32;6.57;;;1.85;;
46230;SDS011;31949;51.404;-0.038;2023-05-02T12:30:00;7.10;;;2.50;;
46230;SDS011;31949;51.404;-0.038;2023-05-02T12:32:29;6.28;;;1.50;;
46230;SDS011;31949;51.404;-0.038;2023-05-02T12:34:59;6.90;;;2.45;;
46230;SDS011;31949;51.404;-0.038;2023-05-02T12:37:27;3.35;;;1.98;;
46230;SDS011;31949;51.404;-0.038;2023-05-02T12:39:55;5.70;;;2.10;;
46230;SDS011;31949;51.404;-0.038;2023-05-02T12:42:23;3.47;;;1.77;;
46230;SDS011;31949;51.404;-0.038;2023-05-02T12:44:51;7.22;;;2.40;;
46230;SDS011;31949;51.404;-0.038;2023-05-02T12:47:19;6.97;;;1.90;;
46230;SDS011;31949;51.404;-0.038;2023-05-02T12:52:19;4.97;;;1.80;;
46230;SDS011;31949;51.404;-0.038;2023-05-02T12:54:48;5.35;;;2.33;;
46230;SDS011;31949;51.404;-0.038;2023-05-02T12:57:21;3.88;;;1.98;;
46230;SDS011;31949;51.404;-0.038;2023-05-02T12:59:51;4.35;;;1.65;;
46230;SDS011;31949;51.404;-0.038;2023-05-02T13:02:20;4.82;;;1.83;;
46230;SDS011;31949;51.404;-0.038;2023-05-02T13:04:48;8.35;;;2.65;;
46230;SDS011;31949;51.404;-0.038;2023-05-02T13:07:15;8.15;;;2.40;;
46230;SDS011;31949;51.404;-0.038;2023-05-02T13:09:42;5.72;;;1.90;;
46230;SDS011;31949;51.404;-0.038;2023-05-02T13:12:09;7.10;;;2.05;;
46230;SDS011;31949;51.404;-0.038;2023-05-02T13:14:36;4.88;;;2.30;;
46230;SDS011;31949;51.404;-0.038;2023-05-02T13:17:04;5.15;;;2.20;;
46230;SDS011;31949;51.404;-0.038;2023-05-02T13:19:34;7.05;;;2.42;;
46230;SDS011;31949;51.404;-0.038;2023-05-02T13:22:04;6.45;;;2.75;;
46230;SDS011;31949;51.404;-0.038;2023-05-02T13:24:31;7.90;;;2.80;;
46230;SDS011;31949;51.404;-0.038;2023-05-02T13:26:58;7.35;;;2.72;;
46230;SDS011;31949;51.404;-0.038;2023-05-02T13:29:25;6.57;;;1.92;;
46230;SDS011;31949;51.404;-0.038;2023-05-02T13:31:53;7.13;;;2.65;;
46230;SDS011;31949;51.404;-0.038;2023-05-02T13:34:20;7.25;;;2.45;;
46230;SDS011;31949;51.404;-0.038;2023-05-02T13:36:47;9.80;;;2.63;;
46230;SDS011;31949;51.404;-0.038;2023-05-02T13:39:14;9.35;;;2.40;;
46230;SDS011;31949;51.404;-0.038;2023-05-02T13:41:41;4.18;;;2.30;;
46230;SDS011;31949;51.404;-0.038;2023-05-02T13:44:09;6.10;;;2.58;;
46230;SDS011;31949;51.404;-0.038;2023-05-02T13:46:36;5.88;;;2.75;;
46230;SDS011;31949;51.404;-0.038;2023-05-02T13:49:04;5.32;;;2.40;;
46230;SDS011;31949;51.404;-0.038;2023-05-02T13:51:31;8.80;;;2.85;;
46230;SDS011;31949;51.404;-0.038;2023-05-02T13:53:59;4.32;;;1.85;;
46230;SDS011;31949;51.404;-0.038;2023-05-02T13:56:26;5.53;;;2.30;;
46230;SDS011;31949;51.404;-0.038;2023-05-02T13:58:54;6.68;;;2.13;;
46230;SDS011;31949;51.404;-0.038;2023-05-02T14:01:21;3.53;;;2.22;;
46230;SDS011;31949;51.404;-0.038;2023-05-02T14:03:48;7.82;;;2.20;;
46230;SDS011;31949;51.404;-0.038;2023-05-02T14:06:16;9.48;;;2.90;;
46230;SDS011;31949;51.404;-0.038;2023-05-02T14:08:44;7.85;;;2.38;;
46230;SDS011;31949;51.404;-0.038;2023-05-02T14:11:11;6.40;;;2.90;;
46230;SDS011;31949;51.404;-0.038;2023-05-02T14:13:38;8.40;;;2.70;;
46230;SDS011;31949;51.404;-0.038;2023-05-02T14:16:05;8.30;;;2.85;;
46230;SDS011;31949;51.404;-0.038;2023-05-02T14:18:33;8.23;;;2.15;;
46230;SDS011;31949;51.404;-0.038;2023-05-02T14:21:00;7.05;;;2.50;;
46230;SDS011;31949;51.404;-0.038;2023-05-02T14:23:28;8.48;;;1.92;;
46230;SDS011;31949;51.404;-0.038;2023-05-02T14:25:56;7.07;;;2.47;;
46230;SDS011;31949;51.404;-0.038;2023-05-02T14:28:23;5.32;;;2.00;;
46230;SDS011;31949;51.404;-0.038;2023-05-02T14:30:50;6.65;;;2.35;;
46230;SDS011;31949;51.404;-0.038;2023-05-02T14:33:17;5.82;;;2.22;;
46230;SDS011;31949;51.404;-0.038;2023-05-02T14:35:45;3.20;;;1.90;;
46230;SDS011;31949;51.404;-0.038;2023-05-02T14:38:12;11.73;;;3.22;;
46230;SDS011;31949;51.404;-0.038;2023-05-02T14:40:39;6.72;;;2.60;;
46230;SDS011;31949;51.404;-0.038;2023-05-02T14:43:06;5.50;;;3.10;;
46230;SDS011;31949;51.404;-0.038;2023-05-02T14:45:33;7.25;;;2.58;;
46230;SDS011;31949;51.404;-0.038;2023-05-02T14:48:01;5.93;;;2.38;;
46230;SDS011;31949;51.404;-0.038;2023-05-02T14:50:28;8.70;;;2.70;;
46230;SDS011;31949;51.404;-0.038;2023-05-02T14:52:55;8.60;;;2.33;;
46230;SDS011;31949;51.404;-0.038;2023-05-02T14:55:22;7.35;;;2.38;;
46230;SDS011;31949;51.404;-0.038;2023-05-02T14:57:49;5.25;;;2.50;;
46230;SDS011;31949;51.404;-0.038;2023-05-02T15:00:17;7.32;;;2.47;;
46230;SDS011;31949;51.404;-0.038;2023-05-02T15:02:44;3.67;;;1.75;;
46230;SDS011;31949;51.404;-0.038;2023-05-02T15:05:12;5.20;;;1.80;;
46230;SDS011;31949;51.404;-0.038;2023-05-02T15:07:39;5.40;;;2.10;;
46230;SDS011;31949;51.404;-0.038;2023-05-02T15:10:06;11.65;;;3.58;;
46230;SDS011;31949;51.404;-0.038;2023-05-02T15:12:34;8.02;;;2.17;;
46230;SDS011;31949;51.404;-0.038;2023-05-02T15:15:01;9.70;;;2.28;;
46230;SDS011;31949;51.404;-0.038;2023-05-02T15:17:28;4.20;;;2.22;;
46230;SDS011;31949;51.404;-0.038;2023-05-02T15:19:56;5.95;;;2.20;;
46230;SDS011;31949;51.404;-0.038;2023-05-02T15:22:24;7.38;;;2.22;;
46230;SDS011;31949;51.404;-0.038;2023-05-02T15:24:51;7.88;;;2.65;;
46230;SDS011;31949;51.404;-0.038;2023-05-02T15:27:18;3.83;;;2.03;;
46230;SDS011;31949;51.404;-0.038;2023-05-02T15:29:46;3.63;;;1.83;;
46230;SDS011;31949;51.404;-0.038;2023-05-02T15:32:13;7.72;;;2.33;;
46230;SDS011;31949;51.404;-0.038;2023-05-02T15:34:40;14.75;;;2.47;;
46230;SDS011;31949;51.404;-0.038;2023-05-02T15:37:07;11.93;;;3.15;;
46230;SDS011;31949;51.404;-0.038;2023-05-02T15:39:34;5.78;;;2.55;;
46230;SDS011;31949;51.404;-0.038;2023-05-02T15:42:02;4.05;;;2.60;;